Time;durP1;ratioP1;P1;durP2;ratioP2;P2;SDS_P1;SDS_P2;PMS_P1;PMS_P2;Temp;Humidity;BMP_temperature;BMP_pressure;BME280_temperature;BME280_humidity;BME280_pressure;Samples;Min_cycle;Max_cycle;Signal;HPM_P1;HPM_P2
2022/02/12 00:00:39;;;;;;;13.23;9.47;;;;;;;;;;2613875;54;20457;-78
2022/02/12 00:03:06;;;;;;;18.43;9.10;;;;;;;;;;2613852;54;20394;-78
2022/02/12 00:05:33;;;;;;;13.87;8.73;;;;;;;;;;2613539;54;20464;-77
2022/02/12 00:08:00;;;;;;;19.13;9.10;;;;;;;;;;2613244;51;20403;-77
2022/02/12 00:10:29;;;;;;;17.23;9.60;;;;;;;;;;2613838;54;20414;-77
2022/02/12 00:12:56;;;;;;;15.53;9.70;;;;;;;;;;2613549;47;20412;-78
2022/02/12 00:15:22;;;;;;;14.30;9.93;;;;;;;;;;2613703;47;20431;-78
2022/02/12 00:17:49;;;;;;;15.90;8.93;;;;;;;;;;2613450;54;20427;-77
2022/02/12 00:20:16;;;;;;;11.70;7.80;;;;;;;;;;2614120;46;20431;-79
2022/02/12 00:22:42;;;;;;;15.17;8.80;;;;;;;;;;2614183;47;20432;-78
2022/02/12 00:25:09;;;;;;;13.67;9.20;;;;;;;;;;2613983;39;20820;-78
2022/02/12 00:27:37;;;;;;;14.90;8.00;;;;;;;;;;2614050;54;20416;-78
2022/02/12 00:30:04;;;;;;;11.53;8.80;;;;;;;;;;2613634;54;20723;-78
2022/02/12 00:32:30;;;;;;;8.00;7.20;;;;;;;;;;2614235;47;20543;-78
2022/02/12 00:34:58;;;;;;;11.97;7.60;;;;;;;;;;2615084;54;20413;-78
2022/02/12 00:37:28;;;;;;;12.03;7.87;;;;;;;;;;2614033;54;20463;-77
2022/02/12 00:39:54;;;;;;;13.63;7.47;;;;;;;;;;2615045;54;20423;-79
2022/02/12 00:42:22;;;;;;;20.53;8.57;;;;;;;;;;2614543;54;20425;-78
2022/02/12 00:44:48;;;;;;;15.07;7.73;;;;;;;;;;2614332;54;21015;-78
2022/02/12 00:47:15;;;;;;;16.33;7.90;;;;;;;;;;2614751;54;20407;-78
2022/02/12 00:49:41;;;;;;;20.43;7.30;;;;;;;;;;2614654;39;20835;-78
2022/02/12 00:52:07;;;;;;;12.97;7.30;;;;;;;;;;2614450;54;20402;-77
2022/02/12 00:54:33;;;;;;;11.87;8.03;;;;;;;;;;2614612;54;20519;-79
2022/02/12 00:57:00;;;;;;;15.47;7.87;;;;;;;;;;2614954;54;20422;-78
2022/02/12 00:59:26;;;;;;;17.30;8.13;;;;;;;;;;2614532;54;20418;-78
2022/02/12 01:01:54;;;;;;;15.83;7.43;;;;;;;;;;2614934;54;21306;-78
2022/02/12 01:04:23;;;;;;;13.10;6.83;;;;;;;;;;2614008;54;20962;-78
2022/02/12 01:06:49;;;;;;;12.30;7.30;;;;;;;;;;2614079;54;20400;-77
2022/02/12 01:09:15;;;;;;;15.03;8.00;;;;;;;;;;2613821;54;20414;-78
2022/02/12 01:11:42;;;;;;;15.20;7.20;;;;;;;;;;2615370;54;20435;-78
2022/02/12 01:14:10;;;;;;;10.13;7.27;;;;;;;;;;2614778;39;20810;-78
2022/02/12 01:16:36;;;;;;;15.23;7.50;;;;;;;;;;2614618;47;20431;-77
2022/02/12 01:19:02;;;;;;;14.40;8.10;;;;;;;;;;2614950;54;20418;-78
2022/02/12 01:21:28;;;;;;;13.43;8.00;;;;;;;;;;2614013;47;20459;-78
2022/02/12 01:23:55;;;;;;;20.37;7.73;;;;;;;;;;2614477;54;20434;-76
2022/02/12 01:26:22;;;;;;;12.23;6.53;;;;;;;;;;2614429;39;21081;-78
2022/02/12 01:28:48;;;;;;;12.37;6.90;;;;;;;;;;2614608;54;20416;-77
2022/02/12 01:31:14;;;;;;;16.97;8.00;;;;;;;;;;2613933;54;20406;-77
2022/02/12 01:33:40;;;;;;;14.03;7.40;;;;;;;;;;2613442;47;20426;-77
2022/02/12 01:36:06;;;;;;;12.87;8.13;;;;;;;;;;2614957;39;20842;-77
2022/02/12 01:38:32;;;;;;;10.63;6.53;;;;;;;;;;2613699;46;20450;-78
2022/02/12 01:41:01;;;;;;;10.40;7.20;;;;;;;;;;2614171;54;20422;-77
2022/02/12 01:43:27;;;;;;;7.47;5.93;;;;;;;;;;2613284;47;21149;-78
2022/02/12 01:45:53;;;;;;;13.73;7.30;;;;;;;;;;2613964;47;20506;-77
2022/02/12 01:48:19;;;;;;;17.43;6.70;;;;;;;;;;2614042;54;20395;-77
2022/02/12 01:50:50;;;;;;;20.17;7.03;;;;;;;;;;2614386;54;21007;-78
2022/02/12 01:53:17;;;;;;;18.37;7.30;;;;;;;;;;2614369;47;20427;-78
2022/02/12 01:55:43;;;;;;;21.77;7.20;;;;;;;;;;2614496;31;20933;-77
2022/02/12 01:58:10;;;;;;;11.97;6.03;;;;;;;;;;2614017;54;20443;-78
2022/02/12 02:00:39;;;;;;;12.00;7.70;;;;;;;;;;2614204;54;21039;-77
2022/02/12 02:03:08;;;;;;;13.07;8.50;;;;;;;;;;2614055;54;20427;-78
2022/02/12 02:05:37;;;;;;;8.23;6.47;;;;;;;;;;2613978;47;20446;-77
2022/02/12 02:08:03;;;;;;;12.67;9.27;;;;;;;;;;2614462;54;20396;-77
2022/02/12 02:10:29;;;;;;;15.40;7.60;;;;;;;;;;2613856;54;20403;-77
2022/02/12 02:12:56;;;;;;;7.50;6.40;;;;;;;;;;2614082;47;20412;-77
2022/02/12 02:15:22;;;;;;;14.73;7.93;;;;;;;;;;2613390;47;20899;-79
2022/02/12 02:17:48;;;;;;;12.87;7.70;;;;;;;;;;2614372;54;20458;-78
2022/02/12 02:20:15;;;;;;;10.00;6.53;;;;;;;;;;2614063;54;20419;-76
2022/02/12 02:22:47;;;;;;;7.20;6.03;;;;;;;;;;2615008;47;20439;-77
2022/02/12 02:25:15;;;;;;;11.17;6.10;;;;;;;;;;2615202;47;20407;-77
2022/02/12 02:27:41;;;;;;;11.50;6.63;;;;;;;;;;2614628;39;20802;-77
2022/02/12 02:30:15;;;;;;;9.80;6.90;;;;;;;;;;2614177;47;20441;-77
2022/02/12 02:32:42;;;;;;;8.30;5.40;;;;;;;;;;2614184;54;20559;-78
2022/02/12 02:35:09;;;;;;;10.03;6.17;;;;;;;;;;2614775;54;20434;-77
2022/02/12 02:37:35;;;;;;;10.90;6.90;;;;;;;;;;2614428;47;20434;-78
2022/02/12 02:40:02;;;;;;;11.20;6.20;;;;;;;;;;2615637;54;20461;-78
2022/02/12 02:42:28;;;;;;;15.33;7.20;;;;;;;;;;2615189;47;21033;-77
2022/02/12 02:44:55;;;;;;;10.20;6.00;;;;;;;;;;2615149;39;20815;-77
2022/02/12 02:47:36;;;;;;;10.97;5.60;;;;;;;;;;2614824;47;20407;-77
2022/02/12 02:50:03;;;;;;;8.53;5.60;;;;;;;;;;2613701;54;20400;-76
2022/02/12 02:58:00;;;;;;;10.33;4.93;;;;;;;;;;2614130;51;20423;-80
2022/02/12 03:00:26;;;;;;;7.03;5.73;;;;;;;;;;2614320;54;20433;-77
2022/02/12 03:02:52;;;;;;;11.13;7.77;;;;;;;;;;2615029;54;21011;-78
2022/02/12 03:05:18;;;;;;;10.67;5.77;;;;;;;;;;2615425;39;20810;-78
2022/02/12 03:07:44;;;;;;;13.87;6.10;;;;;;;;;;2615216;39;20841;-77
2022/02/12 03:10:11;;;;;;;5.17;4.67;;;;;;;;;;2614918;54;20454;-77
2022/02/12 03:12:38;;;;;;;11.83;6.43;;;;;;;;;;2613834;51;20439;-77
2022/02/12 03:15:04;;;;;;;15.90;6.50;;;;;;;;;;2614485;54;20511;-78
2022/02/12 03:17:31;;;;;;;8.40;6.60;;;;;;;;;;2614781;54;20459;-78
2022/02/12 03:19:57;;;;;;;10.50;5.53;;;;;;;;;;2614322;46;20527;-77
2022/02/12 03:22:23;;;;;;;14.30;5.50;;;;;;;;;;2612925;54;20956;-78
2022/02/12 03:24:49;;;;;;;12.07;7.23;;;;;;;;;;2615522;54;20414;-78
2022/02/12 03:27:15;;;;;;;17.00;6.50;;;;;;;;;;2614715;54;21000;-77
2022/02/12 03:29:41;;;;;;;16.47;6.13;;;;;;;;;;2615223;39;20895;-77
2022/02/12 03:32:09;;;;;;;10.37;6.70;;;;;;;;;;2613749;47;20431;-78
2022/02/12 03:34:36;;;;;;;14.83;5.83;;;;;;;;;;2614612;54;20423;-78
2022/02/12 03:37:02;;;;;;;15.73;6.57;;;;;;;;;;2614717;54;20422;-77
2022/02/12 03:39:28;;;;;;;14.23;5.73;;;;;;;;;;2614483;47;20462;-77
2022/02/12 03:41:55;;;;;;;10.93;5.97;;;;;;;;;;2614562;39;20817;-76
2022/02/12 03:44:22;;;;;;;12.27;5.40;;;;;;;;;;2614314;54;20466;-77
2022/02/12 03:46:48;;;;;;;21.97;5.70;;;;;;;;;;2614606;39;20875;-77
2022/02/12 03:49:14;;;;;;;12.00;5.57;;;;;;;;;;2613794;54;20543;-77
2022/02/12 03:51:41;;;;;;;8.60;7.07;;;;;;;;;;2614788;54;20423;-77
2022/02/12 03:54:08;;;;;;;9.80;5.30;;;;;;;;;;2614260;51;20447;-77
2022/02/12 03:56:35;;;;;;;15.93;6.70;;;;;;;;;;2615488;54;20434;-77
2022/02/12 03:59:01;;;;;;;6.03;5.50;;;;;;;;;;2613737;51;20489;-77
2022/02/12 04:01:27;;;;;;;11.40;6.10;;;;;;;;;;2615153;39;20842;-77
2022/02/12 04:03:54;;;;;;;11.03;5.33;;;;;;;;;;2613064;54;20428;-78
2022/02/12 04:06:20;;;;;;;12.77;4.80;;;;;;;;;;2614373;54;21130;-77
2022/02/12 04:08:46;;;;;;;11.23;6.17;;;;;;;;;;2614834;39;20829;-77
2022/02/12 04:11:12;;;;;;;15.47;5.80;;;;;;;;;;2614041;54;20426;-76
2022/02/12 04:13:39;;;;;;;15.27;5.37;;;;;;;;;;2614111;47;20420;-78
2022/02/12 04:16:06;;;;;;;10.63;6.13;;;;;;;;;;2614018;47;20482;-76
2022/02/12 04:18:32;;;;;;;12.77;5.77;;;;;;;;;;2614288;47;20522;-78
2022/02/12 04:20:59;;;;;;;11.50;5.53;;;;;;;;;;2614367;54;20924;-78
2022/02/12 04:23:25;;;;;;;5.60;5.10;;;;;;;;;;2614306;51;20435;-76
2022/02/12 04:25:53;;;;;;;5.67;5.03;;;;;;;;;;2614151;47;21092;-78
2022/02/12 04:28:20;;;;;;;15.43;6.00;;;;;;;;;;2613764;47;20434;-77
2022/02/12 04:30:46;;;;;;;11.30;6.07;;;;;;;;;;2613029;47;20485;-78
2022/02/12 04:33:13;;;;;;;8.43;5.60;;;;;;;;;;2614778;54;20415;-77
2022/02/12 04:35:40;;;;;;;9.90;6.17;;;;;;;;;;2613622;39;21116;-78
2022/02/12 04:38:06;;;;;;;15.17;6.60;;;;;;;;;;2614422;46;20421;-77
2022/02/12 04:40:33;;;;;;;6.73;4.90;;;;;;;;;;2614387;54;20964;-78
2022/02/12 04:42:59;;;;;;;16.60;7.17;;;;;;;;;;2614130;54;20570;-78
2022/02/12 04:45:25;;;;;;;13.13;5.60;;;;;;;;;;2612912;54;20412;-77
2022/02/12 04:47:53;;;;;;;12.03;5.60;;;;;;;;;;2613891;47;21013;-77
2022/02/12 04:50:19;;;;;;;9.23;5.30;;;;;;;;;;2613981;47;20398;-77
2022/02/12 04:52:45;;;;;;;10.37;5.50;;;;;;;;;;2614406;47;20503;-77
2022/02/12 04:55:11;;;;;;;11.20;6.03;;;;;;;;;;2614263;46;20442;-78
2022/02/12 04:57:39;;;;;;;10.70;5.67;;;;;;;;;;2614545;54;20454;-77
2022/02/12 05:00:06;;;;;;;9.30;5.97;;;;;;;;;;2614486;54;20519;-77
2022/02/12 05:02:32;;;;;;;6.60;5.40;;;;;;;;;;2613906;47;20434;-77
2022/02/12 05:04:58;;;;;;;6.63;4.50;;;;;;;;;;2613670;54;20435;-77
2022/02/12 05:07:26;;;;;;;5.83;5.00;;;;;;;;;;2615004;54;20428;-77
2022/02/12 05:09:52;;;;;;;14.77;5.70;;;;;;;;;;2612891;54;20423;-77
2022/02/12 05:12:19;;;;;;;12.70;6.10;;;;;;;;;;2614147;54;20444;-78
2022/02/12 05:14:45;;;;;;;13.50;7.63;;;;;;;;;;2614380;54;20416;-77
2022/02/12 05:17:11;;;;;;;17.57;6.40;;;;;;;;;;2614351;39;20716;-77
2022/02/12 05:19:37;;;;;;;14.07;5.30;;;;;;;;;;2614734;54;21060;-76
2022/02/12 05:22:03;;;;;;;8.80;5.50;;;;;;;;;;2614755;54;20423;-77
2022/02/12 05:24:30;;;;;;;8.67;5.50;;;;;;;;;;2614217;54;20975;-77
2022/02/12 05:26:56;;;;;;;11.27;6.63;;;;;;;;;;2614360;47;20443;-78
2022/02/12 05:29:23;;;;;;;15.67;6.40;;;;;;;;;;2613351;47;22009;-77
2022/02/12 05:31:49;;;;;;;19.23;6.60;;;;;;;;;;2615005;54;20442;-78
2022/02/12 05:34:15;;;;;;;9.60;6.70;;;;;;;;;;2614181;47;20423;-78
2022/02/12 05:36:42;;;;;;;12.37;5.67;;;;;;;;;;2614196;47;20428;-77
2022/02/12 05:39:09;;;;;;;7.13;6.20;;;;;;;;;;2614453;39;20837;-76
2022/02/12 05:41:36;;;;;;;15.73;5.63;;;;;;;;;;2614643;54;20422;-76
2022/02/12 05:44:03;;;;;;;14.53;5.63;;;;;;;;;;2614278;54;20420;-77
2022/02/12 05:46:29;;;;;;;11.33;5.70;;;;;;;;;;2614346;54;20419;-77
2022/02/12 05:48:55;;;;;;;11.43;6.10;;;;;;;;;;2612526;47;20460;-78
2022/02/12 05:51:22;;;;;;;11.20;5.27;;;;;;;;;;2613695;54;20968;-78
2022/02/12 05:53:49;;;;;;;11.10;5.20;;;;;;;;;;2613532;47;20448;-76
2022/02/12 05:56:17;;;;;;;8.37;5.87;;;;;;;;;;2614022;54;20403;-77
2022/02/12 05:58:43;;;;;;;17.53;4.77;;;;;;;;;;2614677;54;20420;-77
2022/02/12 06:01:10;;;;;;;23.50;5.27;;;;;;;;;;2613961;47;20527;-76
2022/02/12 06:03:36;;;;;;;11.50;6.13;;;;;;;;;;2615025;54;20475;-77
2022/02/12 06:06:02;;;;;;;14.93;5.67;;;;;;;;;;2615494;39;20888;-77
2022/02/12 06:08:30;;;;;;;11.80;5.77;;;;;;;;;;2615241;39;20979;-77
2022/02/12 06:10:56;;;;;;;12.57;5.20;;;;;;;;;;2614636;47;20425;-76
2022/02/12 06:13:22;;;;;;;11.43;5.37;;;;;;;;;;2614706;54;20412;-77
2022/02/12 06:15:48;;;;;;;6.10;5.17;;;;;;;;;;2614961;54;20419;-78
2022/02/12 06:18:15;;;;;;;14.00;5.20;;;;;;;;;;2614715;54;20400;-77
2022/02/12 06:20:42;;;;;;;7.97;5.17;;;;;;;;;;2614847;49;20503;-78
2022/02/12 06:23:09;;;;;;;6.13;5.47;;;;;;;;;;2614743;54;20992;-77
2022/02/12 06:25:35;;;;;;;14.80;6.30;;;;;;;;;;2614835;46;20427;-77
2022/02/12 06:28:01;;;;;;;7.60;4.83;;;;;;;;;;2615808;39;21098;-77
2022/02/12 06:30:27;;;;;;;7.17;4.77;;;;;;;;;;2614626;54;20447;-77
2022/02/12 06:32:59;;;;;;;7.17;5.00;;;;;;;;;;2615217;54;20449;-77
2022/02/12 06:35:25;;;;;;;15.23;5.40;;;;;;;;;;2614623;54;20478;-77
2022/02/12 06:37:51;;;;;;;8.73;5.20;;;;;;;;;;2614376;54;20420;-78
2022/02/12 06:40:18;;;;;;;8.93;5.07;;;;;;;;;;2614767;54;20430;-77
2022/02/12 06:42:44;;;;;;;7.20;4.93;;;;;;;;;;2615656;39;20503;-76
2022/02/12 06:45:11;;;;;;;12.57;5.03;;;;;;;;;;2614522;54;20426;-77
2022/02/12 06:47:39;;;;;;;11.60;5.17;;;;;;;;;;2614555;54;20970;-77
2022/02/12 06:50:05;;;;;;;14.07;5.03;;;;;;;;;;2613418;47;20443;-77
2022/02/12 06:52:32;;;;;;;10.50;5.30;;;;;;;;;;2614261;47;20409;-78
2022/02/12 06:54:58;;;;;;;10.87;4.73;;;;;;;;;;2614885;47;20425;-77
2022/02/12 06:57:24;;;;;;;6.47;5.67;;;;;;;;;;2614933;54;20449;-77
2022/02/12 06:59:50;;;;;;;9.30;5.47;;;;;;;;;;2614768;54;20416;-78
2022/02/12 07:02:18;;;;;;;10.30;5.60;;;;;;;;;;2615488;39;20809;-77
2022/02/12 07:04:45;;;;;;;11.53;5.30;;;;;;;;;;2614635;54;20407;-77
2022/02/12 07:07:14;;;;;;;9.70;4.80;;;;;;;;;;2613945;54;20427;-77
2022/02/12 07:09:41;;;;;;;16.43;5.33;;;;;;;;;;2614177;47;20427;-77
2022/02/12 07:12:07;;;;;;;12.93;5.40;;;;;;;;;;2614051;47;20442;-77
2022/02/12 07:14:35;;;;;;;8.53;5.67;;;;;;;;;;2614010;54;20419;-77
2022/02/12 07:17:03;;;;;;;11.93;5.33;;;;;;;;;;2614308;51;20432;-77
2022/02/12 07:19:30;;;;;;;9.30;5.17;;;;;;;;;;2614185;54;20431;-77
2022/02/12 07:21:58;;;;;;;9.77;5.00;;;;;;;;;;2614960;54;20411;-77
2022/02/12 07:24:24;;;;;;;9.10;5.37;;;;;;;;;;2614410;54;20415;-77
2022/02/12 07:26:51;;;;;;;16.40;7.33;;;;;;;;;;2613950;54;20423;-78
2022/02/12 07:29:17;;;;;;;8.57;6.10;;;;;;;;;;2613989;54;20415;-77
2022/02/12 07:31:43;;;;;;;8.33;5.23;;;;;;;;;;2614882;47;20410;-77
2022/02/12 07:34:14;;;;;;;18.17;5.20;;;;;;;;;;2613156;46;20583;-78
2022/02/12 07:36:40;;;;;;;8.70;4.90;;;;;;;;;;2614129;54;20404;-77
2022/02/12 07:39:06;;;;;;;6.33;4.50;;;;;;;;;;2614494;54;20474;-78
2022/02/12 07:41:35;;;;;;;7.90;5.77;;;;;;;;;;2614990;54;20425;-78
2022/02/12 07:44:02;;;;;;;13.47;5.60;;;;;;;;;;2614162;54;20400;-78
2022/02/12 07:46:28;;;;;;;16.03;4.83;;;;;;;;;;2614526;54;20427;-78
2022/02/12 07:48:56;;;;;;;15.13;6.70;;;;;;;;;;2613226;47;20975;-78
2022/02/12 07:51:22;;;;;;;8.80;5.10;;;;;;;;;;2614285;54;20462;-77
2022/02/12 07:53:49;;;;;;;8.00;4.30;;;;;;;;;;2613722;54;20523;-77
2022/02/12 07:56:15;;;;;;;15.30;5.07;;;;;;;;;;2614407;54;20403;-78
2022/02/12 07:58:41;;;;;;;11.50;5.27;;;;;;;;;;2614409;39;20800;-78
2022/02/12 08:01:07;;;;;;;9.80;4.13;;;;;;;;;;2613845;54;20450;-78
2022/02/12 08:03:34;;;;;;;7.67;5.23;;;;;;;;;;2613981;54;20424;-77
2022/02/12 08:06:01;;;;;;;9.37;4.97;;;;;;;;;;2614094;54;20414;-77
2022/02/12 08:08:28;;;;;;;9.50;4.63;;;;;;;;;;2613559;47;20431;-78
2022/02/12 08:13:41;;;;;;;5.73;4.50;;;;;;;;;;2614855;54;20423;-78
2022/02/12 08:16:07;;;;;;;15.80;5.27;;;;;;;;;;2613836;47;20558;-77
2022/02/12 08:18:34;;;;;;;7.90;4.60;;;;;;;;;;2613557;54;20984;-78
2022/02/12 08:21:00;;;;;;;7.20;4.47;;;;;;;;;;2613795;54;20416;-78
2022/02/12 08:23:26;;;;;;;10.30;5.70;;;;;;;;;;2613183;47;20514;-77
2022/02/12 08:25:53;;;;;;;5.80;4.37;;;;;;;;;;2613766;51;20474;-78
2022/02/12 08:28:20;;;;;;;10.00;5.47;;;;;;;;;;2613867;46;20438;-77
2022/02/12 08:30:46;;;;;;;13.40;5.23;;;;;;;;;;2614053;47;20478;-78
2022/02/12 08:33:12;;;;;;;8.40;4.50;;;;;;;;;;2613538;54;20980;-78
2022/02/12 08:35:40;;;;;;;6.07;4.43;;;;;;;;;;2614371;54;20940;-78
2022/02/12 08:38:06;;;;;;;8.40;5.33;;;;;;;;;;2613734;54;20971;-78
2022/02/12 08:40:32;;;;;;;9.30;4.53;;;;;;;;;;2612572;54;20458;-77
2022/02/12 08:42:59;;;;;;;9.10;5.43;;;;;;;;;;2614247;47;20435;-77
2022/02/12 08:45:25;;;;;;;8.87;5.70;;;;;;;;;;2613749;47;21009;-78
2022/02/12 08:47:52;;;;;;;9.63;4.17;;;;;;;;;;2614252;54;20417;-77
2022/02/12 08:50:18;;;;;;;9.40;4.60;;;;;;;;;;2614485;54;20427;-78
2022/02/12 08:52:44;;;;;;;8.80;4.93;;;;;;;;;;2614436;54;20513;-77
2022/02/12 08:55:12;;;;;;;7.90;4.80;;;;;;;;;;2613807;54;20436;-77
2022/02/12 08:57:39;;;;;;;9.17;4.97;;;;;;;;;;2613997;39;20890;-78
2022/02/12 09:00:07;;;;;;;13.80;4.13;;;;;;;;;;2614015;39;20793;-78
2022/02/12 09:02:34;;;;;;;13.03;4.23;;;;;;;;;;2613090;47;20431;-77
2022/02/12 09:05:00;;;;;;;7.93;4.53;;;;;;;;;;2612963;47;20981;-77
2022/02/12 09:07:27;;;;;;;9.17;4.97;;;;;;;;;;2613911;54;20419;-78
2022/02/12 09:09:54;;;;;;;8.00;4.37;;;;;;;;;;2613068;54;20415;-78
2022/02/12 09:12:21;;;;;;;10.47;4.63;;;;;;;;;;2613550;47;20519;-78
2022/02/12 09:14:47;;;;;;;10.37;5.33;;;;;;;;;;2614079;39;20795;-78
2022/02/12 09:17:13;;;;;;;9.63;4.70;;;;;;;;;;2613661;54;20419;-78
2022/02/12 09:19:39;;;;;;;8.37;5.10;;;;;;;;;;2614493;54;20430;-77
2022/02/12 09:22:06;;;;;;;12.17;4.50;;;;;;;;;;2613545;54;20419;-78
2022/02/12 09:24:32;;;;;;;16.53;4.63;;;;;;;;;;2613461;54;20426;-79
2022/02/12 09:26:58;;;;;;;9.70;4.53;;;;;;;;;;2613696;39;20829;-77
2022/02/12 09:29:24;;;;;;;20.07;4.77;;;;;;;;;;2613784;39;20922;-78
2022/02/12 09:31:50;;;;;;;9.47;4.70;;;;;;;;;;2612812;47;20980;-79
2022/02/12 09:34:17;;;;;;;14.37;5.07;;;;;;;;;;2612391;54;20587;-78
2022/02/12 09:36:43;;;;;;;13.40;4.87;;;;;;;;;;2614811;39;20991;-78
2022/02/12 09:39:09;;;;;;;6.43;3.80;;;;;;;;;;2613682;47;21097;-78
2022/02/12 09:41:35;;;;;;;8.23;3.97;;;;;;;;;;2613995;39;20842;-76
2022/02/12 09:44:01;;;;;;;11.97;5.03;;;;;;;;;;2613056;47;20424;-78
2022/02/12 09:46:50;;;;;;;9.27;4.20;;;;;;;;;;2613517;54;20428;-78
2022/02/12 09:49:17;;;;;;;8.97;4.87;;;;;;;;;;2613521;54;20442;-77
2022/02/12 09:51:44;;;;;;;8.03;4.73;;;;;;;;;;2613095;47;21010;-78
2022/02/12 09:54:12;;;;;;;16.50;4.83;;;;;;;;;;2613678;54;21039;-78
2022/02/12 09:56:39;;;;;;;6.60;3.53;;;;;;;;;;2613828;47;21370;-78
2022/02/12 09:59:05;;;;;;;8.97;5.20;;;;;;;;;;2613318;54;20415;-79
2022/02/12 10:01:31;;;;;;;15.00;4.37;;;;;;;;;;2613524;47;20417;-78
2022/02/12 10:03:58;;;;;;;14.33;4.37;;;;;;;;;;2612063;54;20422;-77
2022/02/12 10:06:43;;;;;;;9.00;5.10;;;;;;;;;;2613955;39;20917;-77
2022/02/12 10:09:09;;;;;;;12.20;4.33;;;;;;;;;;2613290;47;20433;-77
2022/02/12 10:11:43;;;;;;;5.30;4.40;;;;;;;;;;2613115;54;20427;-77
2022/02/12 10:14:15;;;;;;;7.93;4.20;;;;;;;;;;2613969;39;21090;-78
2022/02/12 10:16:49;;;;;;;9.90;5.10;;;;;;;;;;2614126;47;20518;-78
2022/02/12 10:19:16;;;;;;;6.20;4.10;;;;;;;;;;2613503;47;20470;-78
2022/02/12 10:22:02;;;;;;;7.57;3.67;;;;;;;;;;2613663;54;20419;-78
2022/02/12 10:24:48;;;;;;;13.90;4.10;;;;;;;;;;2614249;39;20803;-78
2022/02/12 10:27:15;;;;;;;10.13;3.60;;;;;;;;;;2613630;54;20475;-78
2022/02/12 10:29:41;;;;;;;9.03;4.80;;;;;;;;;;2613105;54;21325;-78
2022/02/12 10:32:09;;;;;;;9.00;4.70;;;;;;;;;;2612874;47;20523;-78
2022/02/12 10:34:45;;;;;;;4.57;4.10;;;;;;;;;;2613133;47;20423;-78
2022/02/12 10:37:14;;;;;;;7.47;4.07;;;;;;;;;;2612935;47;20498;-78
2022/02/12 10:39:53;;;;;;;4.63;3.70;;;;;;;;;;2613653;47;20439;-78
2022/02/12 10:42:20;;;;;;;10.03;5.27;;;;;;;;;;2613434;54;20429;-78
2022/02/12 10:44:46;;;;;;;13.80;4.53;;;;;;;;;;2614229;46;20455;-78
2022/02/12 10:47:13;;;;;;;7.87;4.13;;;;;;;;;;2614168;54;20444;-81
2022/02/12 10:49:44;;;;;;;9.80;4.80;;;;;;;;;;2614149;54;20430;-78
2022/02/12 10:52:10;;;;;;;9.70;3.90;;;;;;;;;;2614139;47;21134;-78
2022/02/12 10:55:02;;;;;;;6.13;3.50;;;;;;;;;;2614278;54;20430;-78
2022/02/12 10:57:30;;;;;;;4.23;2.47;;;;;;;;;;2614196;54;20458;-77
2022/02/12 10:59:58;;;;;;;11.10;3.90;;;;;;;;;;2615002;39;21231;-77
2022/02/12 11:02:26;;;;;;;5.20;3.47;;;;;;;;;;2613146;47;20447;-78
2022/02/12 11:04:53;;;;;;;6.47;3.53;;;;;;;;;;2614586;54;20423;-78
2022/02/12 11:07:20;;;;;;;5.80;3.20;;;;;;;;;;2613826;54;20426;-78
2022/02/12 11:09:47;;;;;;;5.93;3.13;;;;;;;;;;2614428;54;20403;-77
2022/02/12 11:12:14;;;;;;;6.23;3.57;;;;;;;;;;2613555;54;20515;-78
2022/02/12 11:14:43;;;;;;;5.73;3.00;;;;;;;;;;2613757;47;20463;-78
2022/02/12 11:17:18;;;;;;;10.93;4.60;;;;;;;;;;2613831;54;20434;-77
2022/02/12 11:19:45;;;;;;;8.73;4.47;;;;;;;;;;2613737;47;20431;-79
2022/02/12 11:22:12;;;;;;;6.77;3.43;;;;;;;;;;2613662;54;20415;-78
2022/02/12 11:24:45;;;;;;;6.20;3.83;;;;;;;;;;2614182;47;20441;-79
2022/02/12 11:27:15;;;;;;;11.17;5.07;;;;;;;;;;2613363;54;20428;-78
2022/02/12 11:29:42;;;;;;;5.73;3.60;;;;;;;;;;2614078;47;20990;-77
2022/02/12 11:32:10;;;;;;;4.53;4.10;;;;;;;;;;2614240;54;20430;-78
2022/02/12 11:35:12;;;;;;;9.93;3.73;;;;;;;;;;2612764;51;20426;-78
2022/02/12 11:37:40;;;;;;;3.77;3.37;;;;;;;;;;2612209;54;20446;-78
2022/02/12 11:40:12;;;;;;;8.07;3.50;;;;;;;;;;2612972;54;20442;-79
2022/02/12 11:42:48;;;;;;;11.00;4.37;;;;;;;;;;2612859;54;20430;-77
2022/02/12 11:45:21;;;;;;;9.93;3.37;;;;;;;;;;2612648;54;20438;-78
2022/02/12 11:48:05;;;;;;;8.27;3.70;;;;;;;;;;2612863;54;20406;-78
2022/02/12 11:50:48;;;;;;;6.97;3.97;;;;;;;;;;2612914;47;20431;-78
2022/02/12 11:53:33;;;;;;;5.03;4.00;;;;;;;;;;2612915;54;20423;-79
2022/02/12 11:56:09;;;;;;;9.07;3.70;;;;;;;;;;2613162;54;20443;-77
2022/02/12 11:58:41;;;;;;;7.53;4.10;;;;;;;;;;2612419;54;20419;-77
2022/02/12 12:01:32;;;;;;;6.93;4.53;;;;;;;;;;2613462;47;20452;-79
2022/02/12 12:04:04;;;;;;;7.93;4.17;;;;;;;;;;2612681;47;20467;-79
2022/02/12 12:06:31;;;;;;;4.77;3.67;;;;;;;;;;2613629;54;21028;-78
2022/02/12 12:09:06;;;;;;;4.30;3.60;;;;;;;;;;2613168;54;20428;-79
2022/02/12 12:11:32;;;;;;;4.93;3.30;;;;;;;;;;2614217;54;21015;-78
2022/02/12 12:13:59;;;;;;;6.80;4.30;;;;;;;;;;2614416;47;20446;-78
2022/02/12 12:16:32;;;;;;;6.30;4.07;;;;;;;;;;2614647;54;20416;-78
2022/02/12 12:18:58;;;;;;;9.17;4.43;;;;;;;;;;2614667;54;20424;-78
2022/02/12 12:21:26;;;;;;;8.90;4.17;;;;;;;;;;2614342;47;20416;-78
2022/02/12 12:23:56;;;;;;;14.30;3.53;;;;;;;;;;2614782;54;20466;-78
2022/02/12 12:26:36;;;;;;;8.57;4.20;;;;;;;;;;2613709;47;20433;-77
2022/02/12 12:31:59;;;;;;;7.90;3.90;;;;;;;;;;2614334;54;20419;-78
2022/02/12 12:34:26;;;;;;;6.47;3.83;;;;;;;;;;2614051;54;20427;-79
2022/02/12 12:36:56;;;;;;;4.73;4.03;;;;;;;;;;2614491;54;20432;-78
2022/02/12 12:39:30;;;;;;;6.33;3.80;;;;;;;;;;2613697;47;20412;-78
2022/02/12 12:41:56;;;;;;;5.70;3.60;;;;;;;;;;2613292;54;20530;-78
2022/02/12 12:44:27;;;;;;;9.90;4.97;;;;;;;;;;2614029;54;20807;-78
2022/02/12 12:46:55;;;;;;;3.93;3.00;;;;;;;;;;2613955;54;20419;-79
2022/02/12 12:49:57;;;;;;;10.17;3.60;;;;;;;;;;2613165;47;20408;-78
2022/02/12 12:52:26;;;;;;;6.43;3.40;;;;;;;;;;2612976;54;20406;-78
2022/02/12 12:54:56;;;;;;;4.63;3.20;;;;;;;;;;2612971;54;20429;-77
2022/02/12 12:57:29;;;;;;;5.43;3.40;;;;;;;;;;2613206;47;20439;-78
2022/02/12 12:59:57;;;;;;;5.27;3.27;;;;;;;;;;2612629;54;20415;-80
2022/02/12 13:02:25;;;;;;;6.23;3.30;;;;;;;;;;2612381;54;20442;-79
2022/02/12 13:04:58;;;;;;;7.03;3.20;;;;;;;;;;2612215;47;20468;-77
2022/02/12 13:07:26;;;;;;;7.07;4.03;;;;;;;;;;2612617;54;20456;-78
2022/02/12 13:09:55;;;;;;;3.77;2.93;;;;;;;;;;2612777;54;20463;-78
2022/02/12 13:12:27;;;;;;;10.73;3.80;;;;;;;;;;2611823;39;20969;-79
2022/02/12 13:14:54;;;;;;;4.87;4.07;;;;;;;;;;2612583;54;20458;-78
2022/02/12 13:17:22;;;;;;;4.00;3.60;;;;;;;;;;2612854;54;20538;-79
2022/02/12 13:19:50;;;;;;;4.17;3.43;;;;;;;;;;2612774;54;20411;-78
2022/02/12 13:22:16;;;;;;;7.13;3.90;;;;;;;;;;2612751;47;20438;-78
2022/02/12 13:24:43;;;;;;;5.43;3.60;;;;;;;;;;2612550;54;20438;-79
2022/02/12 13:27:10;;;;;;;4.57;3.33;;;;;;;;;;2613290;47;20431;-79
2022/02/12 13:29:38;;;;;;;5.70;4.17;;;;;;;;;;2613518;47;21066;-78
2022/02/12 13:32:08;;;;;;;8.93;3.47;;;;;;;;;;2614544;54;20416;-79
2022/02/12 13:34:41;;;;;;;3.87;3.23;;;;;;;;;;2613777;54;20436;-80
2022/02/12 13:37:08;;;;;;;3.83;3.13;;;;;;;;;;2613693;54;20406;-79
2022/02/12 13:39:35;;;;;;;5.40;3.57;;;;;;;;;;2613304;54;20462;-79
2022/02/12 13:42:01;;;;;;;6.50;3.87;;;;;;;;;;2612214;54;20412;-78
2022/02/12 13:44:30;;;;;;;4.87;3.40;;;;;;;;;;2613808;47;20424;-78
2022/02/12 13:46:57;;;;;;;5.90;3.60;;;;;;;;;;2613037;47;20423;-78
2022/02/12 13:49:27;;;;;;;4.90;3.23;;;;;;;;;;2613715;47;20453;-78
2022/02/12 13:51:55;;;;;;;4.80;3.77;;;;;;;;;;2613507;47;20419;-78
2022/02/12 13:54:22;;;;;;;4.20;3.80;;;;;;;;;;2613777;54;20419;-79
2022/02/12 13:56:52;;;;;;;11.73;4.23;;;;;;;;;;2613266;47;20430;-79
2022/02/12 13:59:22;;;;;;;9.23;3.77;;;;;;;;;;2613322;51;20512;-79
2022/02/12 14:01:50;;;;;;;4.40;3.70;;;;;;;;;;2612796;54;20407;-79
2022/02/12 14:04:18;;;;;;;3.73;3.30;;;;;;;;;;2613348;47;20422;-78
2022/02/12 14:06:45;;;;;;;5.60;3.80;;;;;;;;;;2612826;54;20537;-78
2022/02/12 14:09:16;;;;;;;3.83;3.47;;;;;;;;;;2613633;54;20535;-78
2022/02/12 14:11:43;;;;;;;8.17;3.97;;;;;;;;;;2613127;47;20439;-79
2022/02/12 14:14:11;;;;;;;4.30;3.53;;;;;;;;;;2613556;54;20955;-78
2022/02/12 14:16:38;;;;;;;5.80;3.90;;;;;;;;;;2612831;54;20418;-79
2022/02/12 14:19:05;;;;;;;5.50;3.93;;;;;;;;;;2614168;39;21120;-79
2022/02/12 14:21:34;;;;;;;4.53;4.07;;;;;;;;;;2614252;54;20506;-79
2022/02/12 14:24:00;;;;;;;7.97;3.80;;;;;;;;;;2614645;54;20430;-78
2022/02/12 14:26:27;;;;;;;5.27;3.67;;;;;;;;;;2614216;54;20565;-78
2022/02/12 14:28:54;;;;;;;8.63;5.00;;;;;;;;;;2615061;39;21146;-78
2022/02/12 14:31:20;;;;;;;9.10;4.60;;;;;;;;;;2612915;54;21002;-79
2022/02/12 14:33:46;;;;;;;5.37;3.87;;;;;;;;;;2614656;54;20419;-80
2022/02/12 14:36:13;;;;;;;3.90;3.50;;;;;;;;;;2614589;39;20793;-78
2022/02/12 14:38:40;;;;;;;6.70;3.90;;;;;;;;;;2613753;54;20428;-78
2022/02/12 14:41:06;;;;;;;4.77;4.30;;;;;;;;;;2614797;39;20839;-79
2022/02/12 14:43:33;;;;;;;3.97;3.20;;;;;;;;;;2614259;54;20455;-78
2022/02/12 14:46:00;;;;;;;6.90;4.23;;;;;;;;;;2614478;39;20901;-79
2022/02/12 14:48:26;;;;;;;7.10;3.73;;;;;;;;;;2614395;47;20419;-79
2022/02/12 14:50:53;;;;;;;4.80;3.07;;;;;;;;;;2614449;54;20454;-79